Time;durP1;ratioP1;P1;durP2;ratioP2;P2;SDS_P1;SDS_P2;PMS_P1;PMS_P2;Temp;Humidity;BMP_temperature;BMP_pressure;BME280_temperature;BME280_humidity;BME280_pressure;Samples;Min_cycle;Max_cycle;Signal;HPM_P1;HPM_P2
2021/12/06 00:01:22;;;;;;;5.68;4.15;;;4.90;99.90;;;5.14;100.00;99878.94;4877355;29;20132;-73
2021/12/06 00:04:15;;;;;;;6.78;4.30;;;4.90;99.90;;;5.16;100.00;99875.44;4862185;29;20485;-73
2021/12/06 00:06:46;;;;;;;5.50;4.15;;;5.50;99.90;;;5.02;100.00;99866.88;4877701;29;20534;-73
2021/12/06 00:09:19;;;;;;;5.10;4.03;;;4.90;99.90;;;5.05;100.00;99883.34;4877475;29;20053;-73
2021/12/06 00:11:46;;;;;;;7.68;4.50;;;4.90;99.90;;;5.05;100.00;99874.66;4858409;29;20052;-74
2021/12/06 00:14:13;;;;;;;8.18;4.53;;;4.90;99.90;;;4.98;100.00;99881.66;4857856;29;20045;-73
2021/12/06 00:16:40;;;;;;;6.50;4.28;;;4.90;99.90;;;4.96;100.00;99893.88;4858281;29;20049;-73
2021/12/06 00:19:07;;;;;;;4.47;4.07;;;5.20;99.90;;;4.94;100.00;99886.03;4858655;29;20467;-73
2021/12/06 00:21:35;;;;;;;8.43;4.75;;;4.80;99.90;;;4.95;100.00;99892.13;4858362;29;20382;-73
2021/12/06 00:24:02;;;;;;;6.50;4.50;;;5.60;99.90;;;5.00;100.00;99892.94;4857685;29;20151;-74
2021/12/06 00:26:29;;;;;;;5.25;4.47;;;4.80;99.90;;;4.98;100.00;99899.94;4874792;29;20045;-73
2021/12/06 00:28:58;;;;;;;5.72;4.50;;;4.80;99.90;;;4.90;100.00;99896.50;4857807;29;20056;-73
2021/12/06 00:31:33;;;;;;;6.07;4.93;;;4.80;99.90;;;4.92;100.00;99897.38;4842576;29;20146;-73
2021/12/06 00:34:07;;;;;;;8.68;4.82;;;4.80;99.90;;;4.93;100.00;99896.50;4858663;29;20083;-73
2021/12/06 00:36:39;;;;;;;9.32;5.18;;;4.90;99.90;;;4.90;100.00;99892.16;4843014;29;20047;-74
2021/12/06 00:39:11;;;;;;;5.68;4.18;;;4.90;99.90;;;4.80;100.00;99887.91;4858454;29;20037;-73
2021/12/06 00:41:41;;;;;;;5.55;4.68;;;4.70;99.90;;;4.80;100.00;99900.94;4858155;29;20053;-73
2021/12/06 00:44:09;;;;;;;6.18;3.95;;;5.50;99.90;;;4.74;100.00;99908.81;4858168;29;20055;-74
2021/12/06 00:46:37;;;;;;;7.90;5.03;;;4.80;99.90;;;4.80;100.00;99907.03;4842469;29;20045;-74
2021/12/06 00:49:10;;;;;;;6.35;4.97;;;4.70;99.90;;;4.80;100.00;99913.97;4857733;29;20113;-73
2021/12/06 00:51:38;;;;;;;4.57;4.15;;;4.70;99.90;;;4.82;100.00;99914.81;4857399;29;20308;-73
2021/12/06 00:54:06;;;;;;;6.20;5.05;;;4.70;99.90;;;4.75;100.00;99920.97;4856797;29;20499;-73
2021/12/06 00:56:33;;;;;;;5.40;4.82;;;5.90;99.90;;;4.77;100.00;99919.19;4842145;29;20411;-73
2021/12/06 00:59:00;;;;;;;7.40;5.30;;;4.60;99.90;;;4.73;100.00;99927.94;4857806;29;20466;-73
2021/12/06 01:01:27;;;;;;;9.57;6.38;;;4.60;99.90;;;4.73;100.00;99931.38;4857575;29;20052;-73
2021/12/06 01:03:58;;;;;;;8.63;6.97;;;4.70;99.90;;;4.74;100.00;99935.72;4857097;29;20080;-73
2021/12/06 01:06:25;;;;;;;6.55;5.88;;;4.60;99.90;;;4.70;100.00;99939.22;4857785;29;20049;-74
2021/12/06 01:09:10;;;;;;;8.20;7.13;;;3.20;99.90;;;4.70;100.00;99941.00;4843787;29;20448;-73
2021/12/06 01:11:37;;;;;;;8.52;7.63;;;4.60;99.90;;;4.64;100.00;99944.50;4856698;29;20053;-74
2021/12/06 01:14:04;;;;;;;8.48;7.55;;;4.60;99.90;;;4.58;100.00;99950.59;4879444;29;20044;-73
2021/12/06 01:16:31;;;;;;;12.00;7.55;;;4.50;99.90;;;4.49;100.00;99951.53;4911502;29;20520;-73
2021/12/06 01:18:58;;;;;;;9.20;7.82;;;4.50;99.90;;;4.45;100.00;99954.16;4911525;29;20502;-73
2021/12/06 01:24:38;;;;;;;11.98;9.63;;;4.40;99.90;;;4.37;100.00;99947.25;4855145;29;20383;-73
2021/12/06 01:41:06;;;;;;;10.35;8.35;;;4.40;99.90;;;4.63;100.00;99979.25;4859668;29;20049;-73
2021/12/06 01:43:33;;;;;;;10.38;8.38;;;4.30;99.90;;;4.55;100.00;99981.91;4826571;29;20141;-73
2021/12/06 01:46:03;;;;;;;14.73;8.38;;;4.30;99.90;;;4.53;100.00;99984.50;4872437;29;20107;-73
2021/12/06 01:48:30;;;;;;;9.90;8.88;;;4.30;99.90;;;4.55;100.00;100000.13;4841623;29;20049;-73
2021/12/06 01:50:58;;;;;;;11.65;10.45;;;4.40;99.90;;;4.48;100.00;100006.25;4873578;29;20148;-74
2021/12/06 01:53:25;;;;;;;10.73;8.73;;;4.30;99.90;;;4.59;100.00;100008.78;4856672;29;20544;-74
2021/12/06 01:55:52;;;;;;;10.80;9.15;;;4.40;99.90;;;4.57;100.00;100014.03;4856866;29;20049;-73
2021/12/06 01:58:20;;;;;;;11.15;8.95;;;4.40;99.90;;;4.49;100.00;100014.06;4872020;29;20064;-74
2021/12/06 02:00:52;;;;;;;10.02;8.55;;;4.40;99.90;;;4.59;100.00;100012.28;4841710;29;20517;-74
2021/12/06 02:03:27;;;;;;;11.35;9.10;;;4.50;99.90;;;4.54;100.00;100017.50;4842002;29;20084;-73
2021/12/06 02:05:55;;;;;;;14.18;10.13;;;4.40;99.90;;;4.57;100.00;100014.03;4856723;29;20446;-74
2021/12/06 02:08:25;;;;;;;14.38;11.05;;;4.40;99.90;;;4.57;100.00;100015.75;4841863;29;20056;-74
2021/12/06 02:11:01;;;;;;;15.10;11.23;;;4.40;99.90;;;4.56;100.00;100008.81;4873136;29;20060;-74
2021/12/06 02:13:54;;;;;;;12.32;10.15;;;4.40;99.90;;;4.51;100.00;100014.91;4861006;29;20045;-74
2021/12/06 02:16:30;;;;;;;12.98;10.20;;;4.30;99.90;;;4.60;100.00;100007.91;4875248;29;20135;-73
2021/12/06 02:19:03;;;;;;;12.48;10.88;;;4.40;99.90;;;4.56;100.00;100017.50;4861074;29;20060;-74
2021/12/06 02:21:36;;;;;;;14.32;10.75;;;4.40;99.90;;;4.56;100.00;100027.03;4875317;29;20045;-73
2021/12/06 02:24:09;;;;;;;13.02;11.35;;;4.40;99.90;;;4.62;100.00;100024.44;4860182;29;20048;-73
2021/12/06 02:26:42;;;;;;;17.13;11.40;;;4.40;99.90;;;4.67;100.00;100035.69;4875153;29;20053;-74
2021/12/06 02:29:09;;;;;;;13.27;11.25;;;4.40;99.90;;;4.62;100.00;100025.28;4859804;29;20051;-74
2021/12/06 02:31:37;;;;;;;15.02;12.07;;;4.40;99.90;;;4.66;100.00;100036.56;4859780;29;20044;-73
2021/12/06 02:34:05;;;;;;;15.73;11.15;;;4.40;99.90;;;4.54;100.00;100040.94;4859845;29;20044;-73
2021/12/06 02:36:33;;;;;;;16.35;12.57;;;4.40;99.90;;;4.58;100.00;100044.41;4875287;29;20195;-73
2021/12/06 02:39:00;;;;;;;14.23;11.60;;;4.40;99.90;;;4.67;100.00;100049.56;4874993;29;20496;-73
2021/12/06 02:41:29;;;;;;;14.30;11.75;;;6.00;99.90;;;4.86;100.00;100051.22;4875443;29;20417;-73
2021/12/06 02:43:56;;;;;;;15.20;11.68;;;4.40;99.90;;;4.80;100.00;100044.28;4874845;29;20049;-73
2021/12/06 02:46:23;;;;;;;13.90;10.93;;;4.50;99.90;;;4.61;100.00;100044.41;4892393;29;20574;-74
2021/12/06 02:48:52;;;;;;;15.60;11.30;;;4.50;99.90;;;4.60;100.00;100053.09;4875749;29;20064;-73
2021/12/06 02:51:21;;;;;;;12.75;10.73;;;4.50;99.90;;;4.61;100.00;100046.16;4860057;29;20117;-72
2021/12/06 02:53:48;;;;;;;14.60;11.10;;;4.40;99.90;;;4.57;100.00;100049.63;4892639;29;20147;-73
2021/12/06 02:59:08;;;;;;;15.18;11.75;;;4.50;99.90;;;4.57;100.00;100047.00;4871521;29;20073;-74
2021/12/06 03:01:48;;;;;;;19.15;14.10;;;4.40;99.90;;;4.57;100.00;100055.72;4863326;29;20053;-73
2021/12/06 03:04:16;;;;;;;18.65;13.10;;;4.50;99.90;;;4.49;100.00;100066.16;4863687;29;20052;-75
2021/12/06 03:06:44;;;;;;;17.70;12.98;;;4.50;99.90;;;4.53;100.00;100062.66;4882638;29;20048;-72
2021/12/06 03:09:17;;;;;;;18.30;14.60;;;4.40;99.90;;;4.64;100.00;100069.59;4896963;29;20039;-73
2021/12/06 03:11:59;;;;;;;21.05;15.00;;;4.50;99.90;;;4.61;100.00;100069.59;4871330;29;20080;-74
2021/12/06 03:14:41;;;;;;;18.65;13.80;;;4.40;99.90;;;4.61;100.00;100072.22;4874493;29;20045;-73
2021/12/06 03:17:16;;;;;;;19.50;13.50;;;4.50;99.90;;;4.61;100.00;100077.41;4859228;29;20059;-73
2021/12/06 03:19:44;;;;;;;19.83;13.80;;;4.50;99.90;;;4.65;100.00;100069.56;4859298;29;20076;-73
2021/12/06 03:22:13;;;;;;;16.95;12.38;;;4.50;99.90;;;4.67;100.00;100074.78;4874555;29;20132;-74
2021/12/06 03:24:44;;;;;;;18.77;14.15;;;4.50;99.90;;;4.61;100.00;100080.03;4865585;29;20121;-74
2021/12/06 03:27:14;;;;;;;17.02;13.18;;;4.60;99.90;;;4.65;100.00;100079.97;4859189;29;20582;-73
2021/12/06 03:29:43;;;;;;;19.90;12.75;;;4.50;99.90;;;4.63;100.00;100079.13;4844863;29;20057;-73
2021/12/06 03:32:12;;;;;;;14.98;12.85;;;4.50;99.90;;;4.56;100.00;100079.16;4876420;29;20044;-74
2021/12/06 03:34:40;;;;;;;17.67;13.65;;;4.50;99.90;;;4.59;100.00;100076.53;4846932;29;20055;-74
2021/12/06 03:37:09;;;;;;;16.70;13.20;;;4.50;99.90;;;4.63;100.00;100083.50;4878005;29;20052;-73
2021/12/06 03:39:47;;;;;;;17.20;12.65;;;4.60;99.90;;;4.65;100.00;100081.75;4862446;29;20404;-74
2021/12/06 03:42:24;;;;;;;21.60;14.45;;;4.50;99.90;;;4.66;100.00;100091.28;4863186;29;20056;-74
2021/12/06 03:44:53;;;;;;;18.33;14.00;;;5.70;99.90;;;4.58;100.00;100088.72;4862284;29;20143;-74
2021/12/06 03:47:27;;;;;;;18.98;14.35;;;4.50;99.90;;;4.78;100.00;100087.75;4861820;29;20056;-74
2021/12/06 03:49:56;;;;;;;18.65;14.02;;;4.60;99.90;;;4.74;100.00;100088.66;4892605;29;20082;-74
2021/12/06 03:52:23;;;;;;;23.00;14.73;;;4.60;99.90;;;4.74;100.00;100086.03;4861028;29;20715;-74
2021/12/06 03:54:53;;;;;;;26.38;15.88;;;4.50;99.90;;;4.75;100.00;100099.06;4861161;29;20116;-74
2021/12/06 03:57:20;;;;;;;19.08;13.13;;;4.80;99.90;;;4.81;100.00;100098.16;4875658;29;20045;-74
2021/12/06 03:59:50;;;;;;;19.55;14.32;;;4.60;99.90;;;4.78;100.00;100091.25;4877377;29;20072;-74
2021/12/06 04:02:28;;;;;;;19.80;14.05;;;5.50;99.90;;;4.84;100.00;100098.16;4894925;29;20060;-74
2021/12/06 04:04:57;;;;;;;21.55;15.30;;;4.60;99.90;;;4.80;100.00;100101.66;4894432;29;20135;-73
2021/12/06 04:07:28;;;;;;;18.88;13.50;;;4.60;99.90;;;4.77;100.00;100105.16;4880788;29;20055;-74
2021/12/06 04:09:56;;;;;;;19.17;14.00;;;4.60;99.90;;;4.76;100.00;100106.03;4895736;29;20075;-73
2021/12/06 04:12:23;;;;;;;17.30;12.65;;;4.60;99.90;;;4.67;100.00;100106.91;4867482;29;20536;-74
2021/12/06 04:14:51;;;;;;;18.50;13.82;;;5.70;99.90;;;4.54;100.00;100108.69;4846061;29;20072;-74
2021/12/06 04:17:19;;;;;;;17.77;12.87;;;4.50;99.90;;;4.61;100.00;100125.19;4891760;29;20498;-74
2021/12/06 04:19:50;;;;;;;16.45;12.88;;;5.50;99.90;;;4.63;100.00;100125.19;4881335;29;20662;-73
2021/12/06 04:22:21;;;;;;;16.88;12.23;;;4.60;99.90;;;4.51;100.00;100126.94;4861027;29;20077;-73
2021/12/06 04:24:52;;;;;;;17.05;13.63;;;4.50;99.90;;;4.40;100.00;100124.38;4880571;29;20532;-73
2021/12/06 04:27:27;;;;;;;15.38;12.75;;;4.50;99.90;;;4.43;100.00;100138.28;4895019;29;20443;-74
2021/12/06 04:29:56;;;;;;;17.00;13.70;;;4.40;99.90;;;4.34;100.00;100140.00;4879673;29;20434;-74
2021/12/06 04:32:24;;;;;;;19.17;15.02;;;4.40;99.90;;;4.35;100.00;100143.50;4879762;29;20055;-74
2021/12/06 04:34:52;;;;;;;22.58;15.65;;;4.40;99.90;;;4.38;100.00;100144.38;4879934;29;20481;-73
2021/12/06 04:37:20;;;;;;;22.77;17.02;;;4.40;99.90;;;4.44;100.00;100142.59;4894818;29;20458;-73
2021/12/06 04:39:52;;;;;;;22.75;16.10;;;4.30;99.90;;;4.41;100.00;100151.28;4894681;29;20048;-74
2021/12/06 04:42:21;;;;;;;24.63;17.25;;;4.30;99.90;;;4.32;100.00;100156.53;4893917;29;20509;-74
2021/12/06 04:44:48;;;;;;;27.55;18.10;;;4.30;99.90;;;4.20;100.00;100153.06;4894703;29;20493;-74
2021/12/06 04:47:17;;;;;;;20.90;15.95;;;4.40;99.90;;;4.28;100.00;100157.38;4864465;29;20040;-73
2021/12/06 04:49:44;;;;;;;19.13;14.23;;;4.30;99.90;;;4.05;100.00;100158.28;4894460;29;20163;-74
2021/12/06 04:52:13;;;;;;;18.92;14.95;;;5.50;99.90;;;4.11;100.00;100161.75;4894525;29;20075;-74
2021/12/06 04:54:46;;;;;;;23.13;17.17;;;4.20;99.90;;;4.07;100.00;100169.56;4911599;29;20079;-74
2021/12/06 04:57:37;;;;;;;30.00;19.00;;;4.10;99.90;;;4.06;100.00;100173.91;4894778;29;20055;-74
2021/12/06 05:00:26;;;;;;;25.48;18.17;;;4.10;99.90;;;4.07;100.00;100179.97;4894759;29;20048;-74
2021/12/06 05:02:54;;;;;;;22.58;16.95;;;4.20;99.90;;;4.05;100.00;100177.38;4878492;29;20051;-74
2021/12/06 05:05:40;;;;;;;23.60;16.75;;;4.00;99.90;;;4.04;100.00;100178.22;4895156;29;20091;-73
2021/12/06 05:08:15;;;;;;;19.25;14.38;;;4.00;99.90;;;3.96;100.00;100193.84;4880805;29;20063;-74
2021/12/06 05:10:43;;;;;;;20.75;15.98;;;4.00;99.90;;;4.05;100.00;100192.97;4895754;29;20727;-74
2021/12/06 05:13:12;;;;;;;17.75;14.05;;;5.90;99.90;;;4.07;100.00;100188.69;4894940;29;20048;-74
2021/12/06 05:15:40;;;;;;;19.77;14.45;;;4.00;99.90;;;4.03;100.00;100196.47;4878397;29;20096;-74
2021/12/06 05:18:07;;;;;;;18.35;13.95;;;4.00;99.90;;;4.00;100.00;100202.53;4885700;29;20049;-74
2021/12/06 05:20:36;;;;;;;19.98;14.40;;;4.00;99.90;;;4.02;100.00;100198.19;4876675;29;20459;-74
2021/12/06 05:23:07;;;;;;;17.73;13.55;;;4.10;99.90;;;4.02;100.00;100206.00;4876679;29;20548;-75
2021/12/06 05:25:34;;;;;;;16.15;13.65;;;4.00;99.90;;;4.04;100.00;100213.84;4875607;29;20502;-74
2021/12/06 05:28:02;;;;;;;17.80;12.70;;;4.00;99.90;;;4.02;100.00;100207.75;4877168;29;20048;-74
2021/12/06 05:30:30;;;;;;;16.52;12.73;;;4.00;99.90;;;3.99;100.00;100210.38;4878508;29;20078;-74
2021/12/06 05:32:59;;;;;;;20.40;12.55;;;4.10;99.90;;;4.04;100.00;100222.50;4871170;29;20133;-73
2021/12/06 05:35:27;;;;;;;14.98;12.32;;;4.00;99.90;;;4.01;100.00;100221.66;4882434;29;20549;-73
2021/12/06 05:37:58;;;;;;;15.75;12.38;;;4.00;99.90;;;4.06;100.00;100223.41;4873473;29;20037;-73
2021/12/06 05:40:33;;;;;;;14.95;11.98;;;4.00;99.90;;;4.08;100.00;100228.59;4856488;29;20387;-73
2021/12/06 05:43:03;;;;;;;14.70;11.70;;;4.10;99.90;;;4.13;100.00;100245.06;4842743;29;20057;-73
2021/12/06 05:45:33;;;;;;;17.50;12.93;;;4.10;99.90;;;4.15;100.00;100247.69;4871210;29;20462;-73
2021/12/06 05:48:00;;;;;;;16.52;12.73;;;4.70;99.90;;;4.06;100.00;100252.03;4892318;29;20065;-74
2021/12/06 05:50:27;;;;;;;16.40;13.10;;;4.10;99.90;;;4.06;100.00;100246.81;4892411;29;20135;-74
2021/12/06 05:52:55;;;;;;;15.10;12.38;;;4.10;99.90;;;4.12;100.00;100251.16;4891915;29;20522;-75
2021/12/06 05:55:27;;;;;;;11.45;10.20;;;4.10;99.90;;;4.11;100.00;100262.44;4871282;29;20045;-75
2021/12/06 05:58:00;;;;;;;17.00;12.27;;;4.10;99.90;;;4.14;100.00;100266.78;4870851;29;20724;-74
2021/12/06 06:00:31;;;;;;;15.60;11.18;;;6.20;99.90;;;4.18;100.00;100263.31;4875010;29;20108;-73
2021/12/06 06:03:05;;;;;;;13.48;11.70;;;4.20;99.90;;;4.23;100.00;100274.63;4874735;29;20128;-74
2021/12/06 06:05:34;;;;;;;15.10;12.48;;;6.50;99.90;;;4.19;100.00;100280.66;4891201;29;20056;-75
2021/12/06 06:08:02;;;;;;;17.73;14.35;;;4.20;99.90;;;4.22;100.00;100278.09;4874083;29;20506;-74
2021/12/06 06:10:31;;;;;;;14.23;12.38;;;6.20;99.90;;;4.23;100.00;100290.25;4858938;29;20414;-73
2021/12/06 06:13:01;;;;;;;13.05;10.18;;;4.30;99.90;;;4.22;100.00;100294.56;4874149;29;20770;-74
2021/12/06 06:15:29;;;;;;;18.23;15.23;;;4.20;99.90;;;4.10;100.00;100291.94;4874943;29;20057;-74
2021/12/06 06:17:57;;;;;;;16.83;14.85;;;4.30;99.90;;;4.14;100.00;100293.72;4875266;29;20064;-74
2021/12/06 06:20:42;;;;;;;17.15;13.93;;;4.30;99.90;;;4.21;100.00;100304.97;4875414;29;20045;-74
2021/12/06 06:23:10;;;;;;;16.55;14.57;;;4.30;99.90;;;4.15;100.00;100305.84;4875021;29;20053;-74
2021/12/06 06:25:38;;;;;;;18.23;15.02;;;4.30;99.90;;;4.15;100.00;100318.00;4875389;29;20060;-76
2021/12/06 06:28:09;;;;;;;15.07;12.50;;;4.30;99.90;;;4.23;100.00;100311.94;4876527;29;20044;-74
2021/12/06 06:30:37;;;;;;;17.13;13.02;;;4.40;99.90;;;4.09;100.00;100321.44;4878709;29;20048;-74
2021/12/06 06:33:05;;;;;;;14.75;12.30;;;4.30;99.90;;;4.06;100.00;100324.94;4878256;29;20406;-74
2021/12/06 06:35:32;;;;;;;16.52;13.93;;;4.30;99.90;;;4.06;100.00;100326.66;4878538;29;20059;-73
2021/12/06 06:38:00;;;;;;;17.33;14.18;;;4.30;99.90;;;3.99;100.00;100335.34;4895297;29;20554;-74
2021/12/06 06:40:31;;;;;;;16.52;13.57;;;4.30;99.90;;;4.03;100.00;100337.94;4879054;29;20055;-74
2021/12/06 06:42:58;;;;;;;17.02;14.20;;;4.30;99.90;;;4.03;100.00;100342.28;4895275;29;20060;-74
2021/12/06 06:45:25;;;;;;;16.10;13.05;;;4.30;99.90;;;4.07;100.00;100338.81;4878132;29;20051;-73
2021/12/06 06:47:53;;;;;;;17.13;14.13;;;4.30;99.90;;;4.07;100.00;100349.22;4877897;29;20067;-74
2021/12/06 06:50:21;;;;;;;15.43;13.68;;;4.30;99.90;;;4.06;100.00;100356.19;4894877;29;20500;-75
2021/12/06 06:52:49;;;;;;;18.92;13.40;;;4.30;99.90;;;4.07;100.00;100363.13;4877973;29;20067;-75
2021/12/06 06:55:17;;;;;;;19.95;14.65;;;4.40;99.90;;;3.96;100.00;100364.81;4878302;29;20759;-75
2021/12/06 06:57:45;;;;;;;22.25;16.20;;;4.40;99.90;;;3.91;100.00;100366.56;4878269;29;20502;-74
2021/12/06 07:00:35;;;;;;;26.70;19.45;;;4.40;99.90;;;3.89;100.00;100363.94;4880692;29;20493;-74
2021/12/06 07:03:08;;;;;;;26.27;17.98;;;4.30;99.90;;;3.97;100.00;100374.38;4877967;29;20048;-74
2021/12/06 07:05:37;;;;;;;29.50;20.17;;;5.30;99.90;;;4.05;100.00;100371.78;4878390;29;20052;-74
2021/12/06 07:08:04;;;;;;;27.65;20.30;;;4.30;99.90;;;4.07;100.00;100380.47;4894923;29;20049;-73
2021/12/06 07:10:32;;;;;;;29.98;20.60;;;4.30;99.90;;;4.06;100.00;100376.13;4878595;29;20059;-74
2021/12/06 07:13:03;;;;;;;28.20;21.08;;;4.30;99.90;;;4.08;100.00;100375.28;4877941;29;20063;-75
2021/12/06 07:15:33;;;;;;;25.80;19.25;;;5.30;99.90;;;4.05;100.00;100383.06;4860270;29;20113;-75
2021/12/06 07:18:01;;;;;;;;;;;4.40;99.90;;;4.14;100.00;100379.66;4862713;29;20048;-74
2021/12/06 07:20:30;;;;;;;25.77;17.58;;;4.30;99.90;;;4.06;100.00;100382.22;4859754;29;20788;-75
2021/12/06 07:22:57;;;;;;;22.73;17.50;;;5.50;99.90;;;4.08;100.00;100387.41;4902989;29;20059;-75
2021/12/06 07:25:28;;;;;;;24.63;16.80;;;4.40;99.90;;;4.04;100.00;100388.28;4896650;29;20055;-75
2021/12/06 07:27:58;;;;;;;20.27;14.77;;;5.50;99.90;;;4.03;100.00;100395.22;4874846;29;20044;-75
2021/12/06 07:30:26;;;;;;;;;;;6.30;99.90;;;4.14;100.00;100397.00;4878949;29;20044;-74
2021/12/06 07:32:54;;;;;;;16.70;12.73;;;4.30;99.90;;;4.09;100.00;100403.06;4894436;29;19966;-74
2021/12/06 07:35:22;;;;;;;22.00;13.82;;;5.00;99.90;;;4.17;100.00;100402.19;4894877;29;20572;-75
2021/12/06 07:37:50;;;;;;;16.90;14.80;;;4.40;99.90;;;4.15;100.00;100403.94;4894601;29;20091;-74
2021/12/06 07:40:18;;;;;;;19.70;14.02;;;4.40;99.90;;;4.14;100.00;100410.00;4896230;29;20127;-75
2021/12/06 07:42:45;;;;;;;17.48;14.52;;;5.10;99.90;;;4.18;100.00;100402.22;4912961;29;20054;-74
2021/12/06 07:45:14;;;;;;;15.88;12.45;;;4.40;99.90;;;4.16;100.00;100416.09;4896338;29;20052;-74
2021/12/06 07:47:42;;;;;;;18.42;15.05;;;4.40;99.90;;;4.09;100.00;100423.91;4912922;29;20048;-74
2021/12/06 07:50:14;;;;;;;20.05;15.57;;;4.30;99.90;;;4.11;100.00;100423.88;4896005;29;20058;-74
2021/12/06 07:52:51;;;;;;;22.33;16.05;;;4.40;99.90;;;4.14;100.00;100425.63;4896668;29;20149;-74
2021/12/06 07:55:22;;;;;;;20.23;15.65;;;4.40;99.90;;;4.14;100.00;100430.84;4912874;29;20054;-74
2021/12/06 07:57:49;;;;;;;21.65;16.55;;;4.40;99.90;;;4.10;100.00;100432.56;4896124;29;20063;-75
2021/12/06 08:00:23;;;;;;;17.13;13.15;;;4.30;99.90;;;4.12;100.00;100430.81;4912670;29;20079;-75
2021/12/06 08:02:54;;;;;;;14.27;11.88;;;4.70;99.90;;;4.10;100.00;100429.97;4912500;29;20059;-74
2021/12/06 08:05:33;;;;;;;14.73;11.25;;;4.40;99.90;;;4.03;100.00;100430.81;4896162;29;20625;-74
2021/12/06 08:08:24;;;;;;;14.15;12.05;;;4.30;99.90;;;4.16;100.00;100434.31;4897450;29;20486;-75
2021/12/06 08:10:56;;;;;;;17.38;13.45;;;4.40;99.90;;;4.13;100.00;100440.38;4912567;29;20051;-74
2021/12/06 08:13:31;;;;;;;15.90;14.07;;;4.40;99.90;;;4.11;100.00;100436.91;4874731;29;20577;-74
2021/12/06 08:16:08;;;;;;;19.00;15.00;;;4.40;99.90;;;4.09;100.00;100441.22;4859297;29;20059;-74
2021/12/06 08:18:35;;;;;;;16.02;14.25;;;4.40;99.90;;;4.08;100.00;100437.78;4873333;29;20059;-74
2021/12/06 08:21:04;;;;;;;16.95;14.20;;;4.40;99.90;;;4.13;100.00;100447.34;4874854;29;20081;-75
2021/12/06 08:23:31;;;;;;;16.95;15.15;;;4.40;99.90;;;4.19;100.00;100442.13;4874273;29;20053;-74
2021/12/06 08:26:01;;;;;;;14.60;12.18;;;4.40;99.90;;;4.05;100.00;100444.69;4843224;29;20064;-75
2021/12/06 08:28:31;;;;;;;14.27;11.73;;;4.10;99.90;;;4.09;100.00;100446.44;4874700;29;20471;-74
2021/12/06 08:30:58;;;;;;;16.15;11.75;;;4.40;99.90;;;4.15;100.00;100456.03;4858119;29;20304;-75
2021/12/06 08:33:26;;;;;;;15.57;11.98;;;4.20;99.90;;;4.20;100.00;100449.09;4857738;29;20048;-74
2021/12/06 08:35:55;;;;;;;13.88;11.95;;;4.40;99.90;;;4.24;100.00;100449.09;4874384;29;20076;-75
2021/12/06 08:38:28;;;;;;;17.00;12.15;;;4.50;99.90;;;4.30;100.00;100447.41;4858072;29;20047;-75
2021/12/06 08:40:57;;;;;;;13.68;11.93;;;4.50;99.90;;;4.27;100.00;100443.03;4858354;29;20131;-74
2021/12/06 08:43:24;;;;;;;15.35;12.95;;;4.50;99.90;;;4.31;100.00;100446.53;4857908;29;20052;-75
2021/12/06 08:46:00;;;;;;;20.75;11.63;;;4.50;99.90;;;4.35;100.00;100446.53;4842798;29;20052;-74
2021/12/06 08:48:33;;;;;;;14.57;11.55;;;4.60;99.90;;;4.34;100.00;100451.75;4858136;29;20068;-74
2021/12/06 08:51:13;;;;;;;15.52;10.88;;;4.60;99.90;;;4.38;100.00;100467.41;4857338;29;20089;-74
2021/12/06 08:53:43;;;;;;;15.10;11.55;;;4.60;99.90;;;4.37;100.00;100476.09;4858564;29;20087;-74
2021/12/06 08:56:11;;;;;;;14.33;12.77;;;4.60;99.90;;;4.37;100.00;100468.28;4874359;29;20491;-74
2021/12/06 08:58:38;;;;;;;14.13;11.48;;;4.60;99.90;;;4.40;100.00;100464.78;4874173;29;20349;-74
2021/12/06 09:01:07;;;;;;;13.07;10.98;;;5.20;99.90;;;4.44;100.00;100466.53;4858033;29;20418;-74
2021/12/06 09:03:35;;;;;;;16.67;13.82;;;5.50;99.90;;;4.45;100.00;100481.31;4885945;29;20043;-75
2021/12/06 09:06:09;;;;;;;15.13;12.97;;;4.60;99.90;;;4.53;100.00;100471.78;4864539;29;20072;-74
2021/12/06 09:08:37;;;;;;;13.88;10.98;;;4.70;99.90;;;4.52;100.00;100474.38;4842522;29;20372;-74
2021/12/06 09:11:05;;;;;;;13.80;11.55;;;4.80;99.90;;;4.44;100.00;100474.34;4874065;29;20029;-75
2021/12/06 09:13:33;;;;;;;14.43;11.18;;;4.80;99.90;;;4.51;100.00;100470.91;4875913;29;20055;-74
2021/12/06 09:16:04;;;;;;;19.75;12.30;;;6.30;99.90;;;4.56;100.00;100476.13;4876143;29;20044;-73
2021/12/06 09:18:37;;;;;;;14.40;11.82;;;4.80;99.90;;;4.50;100.00;100468.28;4892941;29;20773;-73
2021/12/06 09:21:13;;;;;;;13.40;11.43;;;5.50;99.90;;;4.55;100.00;100474.41;4878764;29;20053;-74
2021/12/06 09:23:41;;;;;;;13.25;11.27;;;5.10;99.90;;;4.50;100.00;100469.16;4875467;29;20048;-74
2021/12/06 09:26:09;;;;;;;13.07;10.38;;;4.70;99.90;;;4.56;100.00;100467.44;4874071;29;20523;-74
2021/12/06 09:28:37;;;;;;;13.25;11.05;;;5.30;99.90;;;4.64;100.00;100465.72;4873767;29;20055;-74
2021/12/06 09:31:05;;;;;;;15.50;12.80;;;4.80;99.90;;;4.71;100.00;100464.84;4857418;29;20506;-74
2021/12/06 09:33:35;;;;;;;15.40;12.38;;;4.80;99.90;;;4.65;100.00;100468.31;4873684;29;20060;-74
2021/12/06 09:36:05;;;;;;;12.85;11.55;;;5.30;99.90;;;4.68;100.00;100462.25;4881051;29;20044;-73
2021/12/06 09:38:38;;;;;;;13.70;11.50;;;5.00;99.90;;;4.72;100.00;100457.91;4894583;29;20048;-73
2021/12/06 09:41:19;;;;;;;13.65;11.57;;;4.90;99.90;;;4.75;100.00;100453.56;4894984;29;20044;-74
2021/12/06 09:43:48;;;;;;;12.95;11.55;;;4.90;99.90;;;4.70;100.00;100444.88;4894685;29;20049;-73
2021/12/06 09:46:15;;;;;;;14.02;12.02;;;4.90;99.90;;;4.71;100.00;100446.59;4894511;29;20044;-74
2021/12/06 09:48:45;;;;;;;11.25;10.05;;;4.90;99.90;;;4.69;100.00;100453.56;4894223;29;20051;-74
2021/12/06 09:51:26;;;;;;;14.73;12.05;;;6.30;99.90;;;4.78;100.00;100457.91;4894754;29;20059;-73
2021/12/06 09:54:11;;;;;;;16.15;11.82;;;5.00;99.90;;;4.77;100.00;100457.06;4911004;29;20040;-74
2021/12/06 09:56:45;;;;;;;14.88;12.60;;;6.60;99.90;;;4.69;100.00;100458.78;4894494;29;20108;-73
2021/12/06 09:59:18;;;;;;;17.65;13.30;;;5.10;99.90;;;4.65;100.00;100460.50;4894738;29;20055;-74
2021/12/06 10:01:54;;;;;;;19.88;12.88;;;5.10;99.90;;;4.70;100.00;100462.25;4895693;29;20048;-74
2021/12/06 10:04:30;;;;;;;16.08;12.98;;;5.00;99.90;;;4.78;100.00;100461.41;4914743;29;20048;-74
2021/12/06 10:06:59;;;;;;;17.40;14.27;;;5.00;99.90;;;4.81;100.00;100460.53;4897743;29;20060;-74
2021/12/06 10:09:28;;;;;;;15.40;13.75;;;5.00;99.90;;;4.85;100.00;100464.91;4850985;29;20056;-73
2021/12/06 10:11:58;;;;;;;16.02;13.75;;;5.10;99.90;;;4.81;100.00;100461.41;4906757;29;20486;-74
2021/12/06 10:14:25;;;;;;;16.40;14.38;;;5.10;99.90;;;4.73;100.00;100459.66;4878924;29;20058;-73
2021/12/06 10:16:52;;;;;;;16.30;14.48;;;5.50;99.90;;;4.75;100.00;100461.38;4879117;29;20594;-74
2021/12/06 10:19:21;;;;;;;19.60;14.93;;;7.00;99.90;;;4.73;100.00;100465.72;4879152;29;20071;-73
2021/12/06 10:21:48;;;;;;;18.17;13.90;;;5.40;99.90;;;4.70;100.00;100473.53;4879303;29;20143;-74
2021/12/06 10:24:20;;;;;;;14.95;12.88;;;7.30;99.90;;;4.85;100.00;100471.84;4878748;29;20056;-74
2021/12/06 10:26:48;;;;;;;16.17;13.52;;;5.70;99.90;;;4.90;100.00;100468.38;4895848;29;20059;-73
2021/12/06 10:29:21;;;;;;;15.93;13.48;;;5.20;99.90;;;5.03;100.00;100464.03;4863388;29;20056;-74
2021/12/06 10:31:53;;;;;;;14.50;13.00;;;5.80;99.90;;;5.34;100.00;100461.41;4879512;29;20054;-73
2021/12/06 10:34:27;;;;;;;13.63;12.23;;;5.30;99.90;;;5.38;100.00;100455.28;4895338;29;20060;-73
2021/12/06 10:36:56;;;;;;;18.08;13.38;;;5.40;99.90;;;5.43;100.00;100457.91;4878980;29;20100;-74
2021/12/06 10:39:24;;;;;;;10.77;9.73;;;5.40;99.90;;;5.39;100.00;100457.06;4895649;29;20865;-74
2021/12/06 10:41:53;;;;;;;8.48;7.22;;;6.60;99.90;;;5.32;100.00;100450.09;4895494;29;20045;-73
2021/12/06 10:44:20;;;;;;;6.15;5.55;;;5.60;99.90;;;5.26;100.00;100450.13;4878480;29;20395;-74